createdAt,value
2023-03-05T00:00:18.186Z,109.05
2023-03-05T00:01:18.140Z,109.98
2023-03-05T00:02:18.173Z,110.34
2023-03-05T00:03:19.142Z,110.63
2023-03-05T00:04:18.098Z,110.42
2023-03-05T00:05:18.106Z,109.33
2023-03-05T00:06:18.140Z,110.12
2023-03-05T00:07:18.058Z,109.91
2023-03-05T00:08:19.071Z,109.91
2023-03-05T00:09:18.061Z,110.49
2023-03-05T00:10:18.051Z,111.74
2023-03-05T00:11:18.033Z,110.71
2023-03-05T00:12:18.039Z,111.67
2023-03-05T00:13:17.981Z,110.20
2023-03-05T00:14:18.891Z,111.22
2023-03-05T00:15:17.962Z,110.78
2023-03-05T00:16:18.061Z,111.00
2023-03-05T00:17:17.937Z,111.89
2023-03-05T00:18:17.930Z,112.26
2023-03-05T00:19:18.826Z,111.89
2023-03-05T00:20:17.886Z,113.02
2023-03-05T00:21:17.909Z,113.10
2023-03-05T00:22:17.902Z,113.64
2023-03-05T00:23:17.848Z,113.25
2023-03-05T00:24:18.810Z,113.71
2023-03-05T00:25:17.830Z,114.18
2023-03-05T00:26:17.840Z,114.41
2023-03-05T00:27:17.779Z,114.18
2023-03-05T00:28:17.797Z,114.18
2023-03-05T00:29:17.794Z,113.94
2023-03-05T00:30:18.727Z,115.28
2023-03-05T00:31:17.874Z,114.96
2023-03-05T00:32:17.794Z,115.44
2023-03-05T00:33:17.716Z,115.44
2023-03-05T00:34:17.713Z,115.12
2023-03-05T00:35:17.688Z,116.08
2023-03-05T00:36:18.613Z,115.60
2023-03-05T00:37:17.694Z,115.68
2023-03-05T00:38:17.659Z,115.68
2023-03-05T00:39:17.649Z,115.44
2023-03-05T00:40:17.744Z,116.32
2023-03-05T00:41:17.631Z,116.32
2023-03-05T00:42:18.566Z,116.24
2023-03-05T00:43:17.597Z,117.05
2023-03-05T00:44:17.617Z,116.24
2023-03-05T00:45:17.610Z,116.08
2023-03-05T00:46:17.632Z,117.21
2023-03-05T00:47:18.579Z,116.89
2023-03-05T00:48:18.459Z,116.64
2023-03-05T00:49:17.544Z,117.21
2023-03-05T00:50:17.527Z,116.89
2023-03-05T00:51:17.547Z,118.21
2023-03-05T00:52:17.514Z,117.54
2023-03-05T00:53:18.381Z,118.46
2023-03-05T00:54:18.424Z,117.54
2023-03-05T00:55:17.455Z,117.71
2023-03-05T00:56:17.423Z,118.54
2023-03-05T00:57:17.443Z,117.96
2023-03-05T00:58:17.436Z,118.21
2023-03-05T00:59:18.329Z,117.71
2023-03-05T01:00:17.398Z,118.04
2023-03-05T01:01:18.388Z,118.04
2023-03-05T01:02:17.368Z,117.87
2023-03-05T01:03:17.361Z,118.29
2023-03-05T01:04:18.256Z,118.21
2023-03-05T01:05:17.361Z,118.88
2023-03-05T01:06:17.291Z,118.63
2023-03-05T01:07:17.312Z,118.63
2023-03-05T01:08:17.269Z,118.79
2023-03-05T01:09:18.186Z,118.79
2023-03-05T01:10:17.254Z,119.39
2023-03-05T01:11:17.217Z,119.56
2023-03-05T01:12:17.203Z,118.37
2023-03-05T01:13:17.214Z,118.63
2023-03-05T01:14:18.134Z,118.46
2023-03-05T01:15:17.159Z,118.54
2023-03-05T01:16:17.203Z,119.56
2023-03-05T01:17:17.179Z,119.64
2023-03-05T01:18:17.198Z,119.05
2023-03-05T01:19:17.529Z,119.30
2023-03-05T01:20:18.045Z,118.88
2023-03-05T01:21:17.161Z,119.56
2023-03-05T01:22:17.084Z,119.56
2023-03-05T01:23:17.051Z,118.71
2023-03-05T01:24:17.052Z,119.39
2023-03-05T01:25:17.051Z,119.56
2023-03-05T01:26:17.982Z,119.30
2023-03-05T01:27:17.023Z,119.47
2023-03-05T01:28:17.010Z,118.88
2023-03-05T01:29:17.020Z,118.21
2023-03-05T01:30:16.977Z,117.96
2023-03-05T01:31:17.954Z,118.12
2023-03-05T01:32:17.007Z,118.54
2023-03-05T01:33:16.927Z,117.54
2023-03-05T01:34:16.961Z,119.05
2023-03-05T01:35:16.944Z,118.46
2023-03-05T01:37:15.282Z,190.64
2023-03-05T01:38:15.362Z,162.46
2023-03-05T01:39:15.272Z,148.49
2023-03-05T01:40:15.313Z,139.00
2023-03-05T01:41:15.258Z,133.47
2023-03-05T01:42:17.131Z,129.84
2023-03-05T01:43:15.195Z,128.45
2023-03-05T01:44:15.166Z,125.09
2023-03-05T01:45:15.151Z,123.80
2023-03-05T01:46:15.188Z,123.62
2023-03-05T01:47:15.148Z,122.35
2023-03-05T01:48:16.111Z,121.73
2023-03-05T01:49:15.275Z,121.11
2023-03-05T01:50:15.146Z,120.68
2023-03-05T01:51:15.095Z,120.76
2023-03-05T01:52:15.081Z,120.94
2023-03-05T01:53:15.984Z,120.76
2023-03-05T01:54:15.122Z,119.90
2023-03-05T01:55:15.180Z,120.24
2023-03-05T01:56:15.069Z,119.90
2023-03-05T01:57:15.113Z,119.22
2023-03-05T01:58:16.871Z,119.22
2023-03-05T01:59:15.064Z,119.39
2023-03-05T02:00:14.990Z,119.22
2023-03-05T02:01:15.046Z,119.73
2023-03-05T02:02:14.958Z,119.73
2023-03-05T02:03:15.053Z,118.79
2023-03-05T02:04:16.013Z,119.22
2023-03-05T02:05:15.005Z,118.71
2023-03-05T02:06:14.932Z,119.64
2023-03-05T02:07:14.924Z,119.56
2023-03-05T02:08:14.874Z,118.46
2023-03-05T02:09:15.871Z,119.13
2023-03-05T02:10:14.846Z,118.37
2023-03-05T02:11:14.916Z,118.71
2023-03-05T02:12:14.855Z,118.04
2023-03-05T02:13:15.791Z,118.63
2023-03-05T02:14:14.896Z,118.63
2023-03-05T02:15:15.729Z,118.21
2023-03-05T02:16:14.788Z,118.71
2023-03-05T02:17:14.810Z,118.29
2023-03-05T02:18:14.816Z,118.63
2023-03-05T02:19:14.752Z,118.12
2023-03-05T02:20:15.689Z,117.87
2023-03-05T02:21:15.679Z,117.87
2023-03-05T02:22:14.679Z,117.30
2023-03-05T02:23:15.693Z,118.21
2023-03-05T02:24:14.673Z,117.54
2023-03-05T02:25:14.672Z,117.96
2023-03-05T02:26:15.580Z,117.38
2023-03-05T02:27:14.642Z,117.87
2023-03-05T02:28:14.599Z,117.21
2023-03-05T02:29:14.680Z,116.97
2023-03-05T02:30:14.645Z,117.21
2023-03-05T02:31:15.589Z,116.72
2023-03-05T02:32:14.695Z,116.64
2023-03-05T02:33:14.622Z,117.13
2023-03-05T02:34:14.678Z,116.89
2023-03-05T02:35:14.565Z,117.21
2023-03-05T02:36:14.565Z,117.21
2023-03-05T02:37:15.609Z,116.24
2023-03-05T02:38:14.538Z,116.40
2023-03-05T02:39:14.600Z,116.81
2023-03-05T02:40:14.478Z,116.64
2023-03-05T02:41:14.486Z,117.71
2023-03-05T02:42:15.402Z,116.81
2023-03-05T02:43:14.480Z,117.13
2023-03-05T02:44:14.395Z,117.71
2023-03-05T02:45:14.444Z,117.30
2023-03-05T02:46:14.430Z,117.54
2023-03-05T02:47:15.394Z,117.46
2023-03-05T02:48:14.516Z,117.21
2023-03-05T02:49:14.369Z,117.96
2023-03-05T02:50:14.400Z,117.38
2023-03-05T02:51:14.314Z,117.46
2023-03-05T02:52:15.260Z,117.30
2023-03-05T02:53:14.419Z,116.48
2023-03-05T02:54:14.299Z,117.21
2023-03-05T02:55:14.574Z,117.05
2023-03-05T02:56:14.266Z,117.71
2023-03-05T02:57:15.298Z,117.38
2023-03-05T02:58:14.286Z,117.54
2023-03-05T02:59:14.251Z,117.87
2023-03-05T03:00:14.351Z,118.12
2023-03-05T03:01:14.239Z,117.38
2023-03-05T03:02:14.205Z,117.63
2023-03-05T03:03:15.206Z,117.46
2023-03-05T03:04:14.209Z,117.87
2023-03-05T03:05:14.177Z,117.71
2023-03-05T03:06:14.230Z,117.21
2023-03-05T03:07:14.121Z,117.54
2023-03-05T03:08:14.141Z,117.46
2023-03-05T03:09:15.097Z,118.04
2023-03-05T03:10:14.100Z,117.79
2023-03-05T03:11:15.027Z,117.38
2023-03-05T03:12:14.081Z,118.29
2023-03-05T03:13:14.105Z,118.04
2023-03-05T03:14:14.079Z,117.63
2023-03-05T03:15:14.998Z,118.04
2023-03-05T03:16:15.034Z,117.87
2023-03-05T03:17:14.002Z,117.54
2023-03-05T03:18:14.017Z,117.79
2023-03-05T03:19:13.979Z,118.29
2023-03-05T03:20:14.978Z,118.21
2023-03-05T03:21:13.937Z,118.54
2023-03-05T03:22:13.976Z,119.39
2023-03-05T03:23:15.036Z,118.96
2023-03-05T03:24:13.946Z,118.46
2023-03-05T03:25:13.953Z,118.71
2023-03-05T03:26:14.875Z,119.39
2023-03-05T03:27:13.948Z,119.73
2023-03-05T03:28:13.898Z,119.47
2023-03-05T03:29:13.954Z,119.73
2023-03-05T03:30:13.892Z,119.56
2023-03-05T03:31:14.911Z,119.22
2023-03-05T03:32:13.817Z,119.90
2023-03-05T03:33:13.877Z,119.56
2023-03-05T03:34:13.774Z,119.90
2023-03-05T03:35:13.781Z,120.07
2023-03-05T03:36:13.752Z,119.90
2023-03-05T03:37:14.775Z,120.07
2023-03-05T03:38:13.739Z,120.16
2023-03-05T03:39:13.743Z,120.24
2023-03-05T03:40:13.724Z,119.39
2023-03-05T03:41:13.718Z,120.16
2023-03-05T03:42:14.658Z,120.42
2023-03-05T03:43:14.619Z,119.73
2023-03-05T03:44:13.672Z,120.33
2023-03-05T03:45:13.681Z,120.42
2023-03-05T03:46:13.696Z,120.07
2023-03-05T03:47:14.609Z,120.42
2023-03-05T03:48:13.658Z,121.11
2023-03-05T03:49:13.586Z,120.85
2023-03-05T03:50:14.245Z,120.24
2023-03-05T03:51:13.632Z,120.42
2023-03-05T03:52:14.643Z,120.50
2023-03-05T03:53:13.545Z,120.42
2023-03-05T03:54:13.542Z,121.20
2023-03-05T03:55:13.544Z,120.68
2023-03-05T03:56:14.497Z,120.50
2023-03-05T03:57:13.521Z,121.29
2023-03-05T03:58:14.481Z,121.11
2023-03-05T03:59:13.536Z,121.46
2023-03-05T04:00:13.490Z,121.91
2023-03-05T04:01:13.490Z,121.82
2023-03-05T04:02:13.515Z,122.00
2023-03-05T04:03:15.334Z,122.08
2023-03-05T04:04:13.440Z,122.17
2023-03-05T04:05:13.467Z,122.17
2023-03-05T04:06:14.422Z,123.25
2023-03-05T04:07:13.463Z,122.80
2023-03-05T04:08:13.399Z,122.89
2023-03-05T04:09:14.289Z,123.43
2023-03-05T04:10:13.347Z,123.34
2023-03-05T04:11:13.400Z,123.07
2023-03-05T04:12:13.337Z,123.25
2023-03-05T04:13:13.326Z,123.62
2023-03-05T04:14:15.251Z,123.25
2023-03-05T04:15:13.293Z,123.71
2023-03-05T04:16:13.314Z,123.62
2023-03-05T04:17:13.240Z,123.98
2023-03-05T04:18:13.352Z,124.17
2023-03-05T04:19:14.172Z,123.62
2023-03-05T04:20:13.368Z,123.98
2023-03-05T04:21:13.357Z,123.80
2023-03-05T04:22:13.456Z,124.26
2023-03-05T04:23:13.237Z,123.62
2023-03-05T04:24:14.174Z,124.81
2023-03-05T04:25:14.069Z,124.54
2023-03-05T04:26:14.098Z,124.35
2023-03-05T04:27:13.140Z,123.98
2023-03-05T04:28:13.245Z,124.26
2023-03-05T04:29:13.190Z,124.35
2023-03-05T04:30:14.051Z,123.16
2023-03-05T04:31:13.132Z,124.17
2023-03-05T04:32:13.236Z,124.54
2023-03-05T04:33:13.085Z,123.98
2023-03-05T04:34:13.075Z,123.98
2023-03-05T04:35:12.999Z,123.62
2023-03-05T04:36:13.962Z,123.89
2023-03-05T04:37:13.084Z,124.26
2023-03-05T04:38:13.038Z,123.89
2023-03-05T04:39:12.971Z,124.07
2023-03-05T04:40:12.960Z,124.17
2023-03-05T04:41:12.980Z,124.07
2023-03-05T04:42:13.880Z,124.35
2023-03-05T04:43:12.905Z,124.35
2023-03-05T04:44:12.906Z,125.00
2023-03-05T04:45:12.880Z,124.26
2023-03-05T04:46:12.977Z,124.81
2023-03-05T04:47:12.888Z,124.72
2023-03-05T04:48:13.774Z,125.19
2023-03-05T04:49:12.912Z,124.91
2023-03-05T04:50:12.860Z,124.81
2023-03-05T04:51:12.948Z,124.63
2023-03-05T04:52:12.823Z,125.19
2023-03-05T04:53:13.730Z,124.72
2023-03-05T04:54:12.903Z,125.47
2023-03-05T04:55:12.802Z,125.66
2023-03-05T04:56:12.773Z,125.85
2023-03-05T04:57:12.764Z,124.91
2023-03-05T04:58:13.654Z,125.94
2023-03-05T04:59:12.707Z,125.66
2023-03-05T05:00:12.693Z,125.47
2023-03-05T05:01:12.719Z,125.09
2023-03-05T05:02:12.697Z,125.37
2023-03-05T05:03:13.723Z,125.85
2023-03-05T05:04:12.685Z,125.00
2023-03-05T05:05:12.676Z,125.47
2023-03-05T05:06:12.648Z,125.66
2023-03-05T05:07:12.639Z,125.94
2023-03-05T05:08:12.660Z,126.70
2023-03-05T05:09:13.579Z,126.32
2023-03-05T05:10:12.553Z,126.22
2023-03-05T05:11:12.569Z,126.61
2023-03-05T05:12:12.565Z,126.32
2023-03-05T05:13:12.708Z,126.22
2023-03-05T05:14:12.633Z,126.61
2023-03-05T05:15:13.445Z,126.80
2023-03-05T05:16:12.559Z,126.70
2023-03-05T05:17:12.578Z,126.51
2023-03-05T05:18:12.495Z,126.42
2023-03-05T05:19:12.585Z,125.85
2023-03-05T05:20:13.442Z,126.80
2023-03-05T05:21:12.461Z,126.03
2023-03-05T05:22:12.417Z,126.61
2023-03-05T05:23:12.465Z,127.09
2023-03-05T05:24:12.369Z,126.42
2023-03-05T05:25:12.399Z,126.89
2023-03-05T05:26:13.460Z,126.61
2023-03-05T05:27:12.472Z,126.32
2023-03-05T05:28:12.429Z,127.09
2023-03-05T05:29:12.403Z,126.42
2023-03-05T05:30:12.328Z,126.22
2023-03-05T05:31:12.333Z,126.70
2023-03-05T05:32:13.282Z,127.57
2023-03-05T05:33:12.321Z,127.67
2023-03-05T05:34:12.281Z,126.70
2023-03-05T05:35:12.233Z,126.89
2023-03-05T05:36:12.371Z,126.70
2023-03-05T05:37:13.285Z,126.42
2023-03-05T05:38:12.231Z,126.80
2023-03-05T05:39:12.198Z,126.42
2023-03-05T05:40:12.242Z,126.99
2023-03-05T05:41:14.894Z,126.61
2023-03-05T05:42:13.095Z,126.03
2023-03-05T05:43:12.249Z,126.80
2023-03-05T05:44:12.198Z,126.51
2023-03-05T05:45:12.272Z,126.61
2023-03-05T05:46:12.283Z,126.80
2023-03-05T05:47:12.116Z,126.22
2023-03-05T05:48:13.025Z,125.47
2023-03-05T05:49:12.096Z,126.03
2023-03-05T05:50:12.061Z,125.94
2023-03-05T05:51:12.137Z,125.47
2023-03-05T05:52:12.238Z,125.28
2023-03-05T05:53:13.111Z,125.94
2023-03-05T05:54:12.019Z,125.19
2023-03-05T05:55:12.045Z,125.28
2023-03-05T05:56:11.985Z,125.75
2023-03-05T05:57:12.060Z,126.03
2023-03-05T05:58:13.007Z,125.75
2023-03-05T05:59:11.983Z,125.37
2023-03-05T06:00:12.184Z,125.66
2023-03-05T06:01:12.001Z,125.28
2023-03-05T06:02:11.950Z,125.00
2023-03-05T06:03:12.943Z,125.09
2023-03-05T06:04:11.897Z,125.19
2023-03-05T06:05:12.113Z,125.75
2023-03-05T06:06:12.645Z,124.81
2023-03-05T06:07:11.950Z,124.17
2023-03-05T06:08:12.068Z,124.54
2023-03-05T06:09:12.820Z,124.07
2023-03-05T06:10:11.887Z,123.53
2023-03-05T06:11:11.797Z,124.26
2023-03-05T06:12:11.800Z,124.07
2023-03-05T06:13:11.769Z,124.35
2023-03-05T06:14:12.698Z,123.89
2023-03-05T06:15:11.761Z,123.34
2023-03-05T06:16:11.798Z,123.89
2023-03-05T06:17:14.820Z,123.53
2023-03-05T06:18:11.751Z,123.62
2023-03-05T06:19:11.708Z,123.53
2023-03-05T06:20:13.301Z,124.07
2023-03-05T06:21:11.847Z,123.43
2023-03-05T06:22:11.834Z,123.25
2023-03-05T06:23:11.651Z,123.98
2023-03-05T06:24:11.669Z,123.98
2023-03-05T06:25:12.585Z,122.53
2023-03-05T06:26:11.609Z,122.71
2023-03-05T06:27:11.669Z,123.16
2023-03-05T06:28:11.569Z,123.34
2023-03-05T06:29:11.576Z,123.34
2023-03-05T06:30:12.512Z,123.89
2023-03-05T06:31:11.606Z,123.34
2023-03-05T06:32:11.596Z,122.98
2023-03-05T06:33:11.580Z,123.07
2023-03-05T06:34:11.507Z,123.89
2023-03-05T06:35:11.505Z,123.43
2023-03-05T06:36:12.384Z,123.07
2023-03-05T06:37:11.672Z,122.89
2023-03-05T06:38:12.366Z,123.25
2023-03-05T06:39:11.539Z,122.62
2023-03-05T06:40:11.442Z,123.25
2023-03-05T06:41:11.466Z,122.89
2023-03-05T06:42:12.324Z,122.80
2023-03-05T06:43:11.462Z,123.34
2023-03-05T06:44:11.449Z,122.08
2023-03-05T06:45:11.352Z,122.53
2023-03-05T06:46:11.427Z,122.53
2023-03-05T06:47:12.314Z,121.29
2023-03-05T06:48:11.436Z,122.08
2023-03-05T06:49:11.341Z,121.73
2023-03-05T06:50:11.304Z,121.29
2023-03-05T06:51:11.327Z,120.50
2023-03-05T06:52:11.284Z,120.94
2023-03-05T06:53:12.199Z,120.76
2023-03-05T06:54:11.303Z,120.50
2023-03-05T06:55:11.262Z,120.59
2023-03-05T06:56:11.243Z,120.94
2023-03-05T06:57:11.235Z,120.50
2023-03-05T06:58:12.172Z,120.42
2023-03-05T06:59:11.180Z,120.24
2023-03-05T07:00:11.236Z,119.99
2023-03-05T07:01:11.230Z,120.24
2023-03-05T07:02:11.247Z,120.33
2023-03-05T07:03:11.194Z,119.39
2023-03-05T07:04:12.127Z,120.16
2023-03-05T07:05:11.125Z,120.07
2023-03-05T07:06:11.104Z,119.39
2023-03-05T07:07:11.135Z,119.39
2023-03-05T07:08:11.077Z,119.90
2023-03-05T07:09:11.078Z,118.63
2023-03-05T07:10:11.981Z,119.73
2023-03-05T07:11:11.066Z,119.90
2023-03-05T07:12:11.248Z,117.87
2023-03-05T07:13:11.012Z,117.46
2023-03-05T07:14:11.014Z,117.71
2023-03-05T07:15:11.920Z,118.29
2023-03-05T07:16:11.026Z,117.63
2023-03-05T07:17:11.097Z,118.21
2023-03-05T07:18:11.087Z,117.38
2023-03-05T07:19:11.009Z,117.05
2023-03-05T07:20:11.027Z,116.64
2023-03-05T07:21:17.698Z,116.40
2023-03-05T07:22:11.802Z,116.24
2023-03-05T07:23:10.870Z,116.56
2023-03-05T07:24:10.892Z,115.92
2023-03-05T07:25:10.913Z,115.44
2023-03-05T07:26:10.942Z,115.60
2023-03-05T07:27:11.809Z,115.04
2023-03-05T07:28:10.815Z,115.04
2023-03-05T07:29:10.808Z,114.96
2023-03-05T07:30:10.815Z,114.33
2023-03-05T07:31:10.839Z,114.80
2023-03-05T07:32:10.920Z,114.33
2023-03-05T07:33:12.012Z,114.18
2023-03-05T07:34:10.755Z,114.18
2023-03-05T07:35:10.757Z,113.79
2023-03-05T07:36:10.746Z,114.18
2023-03-05T07:37:10.711Z,113.79
2023-03-05T07:38:10.743Z,113.25
2023-03-05T07:39:11.654Z,112.95
2023-03-05T07:40:10.651Z,112.79
2023-03-05T07:41:10.650Z,112.87
2023-03-05T07:42:10.706Z,112.95
2023-03-05T07:43:10.654Z,112.26
2023-03-05T07:44:11.586Z,112.79
2023-03-05T07:45:10.652Z,112.11
2023-03-05T07:46:10.658Z,111.67
2023-03-05T07:47:10.643Z,112.57
2023-03-05T07:48:10.571Z,111.44
2023-03-05T07:49:10.578Z,111.82
2023-03-05T07:50:11.503Z,111.15
2023-03-05T07:51:10.530Z,111.59
2023-03-05T07:52:10.726Z,110.85
2023-03-05T07:53:10.508Z,110.93
2023-03-05T07:54:10.623Z,110.71
2023-03-05T07:55:11.382Z,111.22
2023-03-05T07:56:10.634Z,110.42
2023-03-05T07:57:10.450Z,110.85
2023-03-05T07:58:10.454Z,110.56
2023-03-05T07:59:10.505Z,110.49
2023-03-05T08:00:11.351Z,109.91
2023-03-05T08:01:12.533Z,110.56
2023-03-05T08:02:11.186Z,110.27
2023-03-05T08:03:10.718Z,110.71
2023-03-05T08:04:10.837Z,110.85
2023-03-05T08:06:09.299Z,184.67
2023-03-05T08:07:09.279Z,154.09
2023-03-05T08:08:09.300Z,139.70
2023-03-05T08:09:09.275Z,132.20
2023-03-05T08:10:10.214Z,125.66
2023-03-05T08:11:09.267Z,121.64
2023-03-05T08:12:09.217Z,118.96
2023-03-05T08:13:09.263Z,117.38
2023-03-05T08:14:09.186Z,115.44
2023-03-05T08:15:09.204Z,113.71
2023-03-05T08:16:10.171Z,112.72
2023-03-05T08:17:09.189Z,111.52
2023-03-05T08:18:09.165Z,110.85
2023-03-05T08:19:09.140Z,109.48
2023-03-05T08:20:09.127Z,109.12
2023-03-05T08:21:09.113Z,109.33
2023-03-05T08:22:10.075Z,107.86
2023-03-05T08:23:09.131Z,107.65
2023-03-05T08:24:09.075Z,107.17
2023-03-05T08:25:09.056Z,106.15
2023-03-05T08:26:09.108Z,106.08
2023-03-05T08:27:10.018Z,104.36
2023-03-05T08:28:09.032Z,104.04
2023-03-05T08:29:09.038Z,103.52
2023-03-05T08:30:09.014Z,103.14
2023-03-05T08:31:09.037Z,102.70
2023-03-05T08:32:09.940Z,102.38
2023-03-05T08:33:08.969Z,101.45
2023-03-05T08:34:08.951Z,100.84
2023-03-05T08:35:08.956Z,99.94
2023-03-05T08:36:08.915Z,99.23
2023-03-05T08:37:08.935Z,98.18
2023-03-05T08:38:09.828Z,97.89
2023-03-05T08:39:08.876Z,97.44
2023-03-05T08:40:08.931Z,97.44
2023-03-05T08:41:08.863Z,96.99
2023-03-05T08:42:09.131Z,96.15
2023-03-05T08:43:09.792Z,95.66
2023-03-05T08:44:08.838Z,95.71
2023-03-05T08:45:08.794Z,95.82
2023-03-05T08:46:08.916Z,96.10
2023-03-05T08:47:08.790Z,95.55
2023-03-05T08:48:09.746Z,95.99
2023-03-05T08:49:08.749Z,96.15
2023-03-05T08:50:08.779Z,95.82
2023-03-05T08:51:08.770Z,96.65
2023-03-05T08:52:08.710Z,96.65
2023-03-05T08:53:08.777Z,96.54
2023-03-05T08:54:09.603Z,96.38
2023-03-05T08:55:08.699Z,97.16
2023-03-05T08:56:08.703Z,97.10
2023-03-05T08:57:08.654Z,97.44
2023-03-05T08:58:08.674Z,97.21
2023-03-05T08:59:08.618Z,97.61
2023-03-05T09:00:09.553Z,98.30
2023-03-05T09:01:08.644Z,98.41
2023-03-05T09:02:08.631Z,97.95
2023-03-05T09:03:08.633Z,97.89
2023-03-05T09:04:08.560Z,97.67
2023-03-05T09:05:09.490Z,96.71
2023-03-05T09:06:08.543Z,96.43
2023-03-05T09:07:08.549Z,96.21
2023-03-05T09:08:08.637Z,95.28
2023-03-05T09:09:08.493Z,94.85
2023-03-05T09:10:08.580Z,94.85
2023-03-05T09:11:09.491Z,95.01
2023-03-05T09:12:10.589Z,94.90
2023-03-05T09:13:08.465Z,94.31
2023-03-05T09:14:08.463Z,94.31
2023-03-05T09:15:08.417Z,94.15
2023-03-05T09:16:08.410Z,94.26
2023-03-05T09:17:09.355Z,94.05
2023-03-05T09:18:08.392Z,94.00
2023-03-05T09:19:08.486Z,94.05
2023-03-05T09:20:08.373Z,93.63
2023-03-05T09:21:08.369Z,94.63
2023-03-05T09:22:08.320Z,94.10
2023-03-05T09:23:09.256Z,94.31
2023-03-05T09:24:08.292Z,94.69
2023-03-05T09:25:08.329Z,94.47
2023-03-05T09:26:08.255Z,95.12
2023-03-05T09:27:08.256Z,95.33
2023-03-05T09:28:09.212Z,95.61
2023-03-05T09:29:08.300Z,95.71
2023-03-05T09:30:08.301Z,96.26
2023-03-05T09:31:08.209Z,96.15
2023-03-05T09:32:08.316Z,95.93
2023-03-05T09:33:08.285Z,96.04
2023-03-05T09:34:09.101Z,96.26
2023-03-05T09:35:08.173Z,96.10
2023-03-05T09:36:08.147Z,95.93
2023-03-05T09:37:08.249Z,96.60
2023-03-05T09:38:08.167Z,96.49
2023-03-05T09:39:08.115Z,96.04
2023-03-05T09:40:09.037Z,96.32
2023-03-05T09:41:08.111Z,96.10
2023-03-05T09:42:10.230Z,95.71
2023-03-05T09:43:08.087Z,95.88
2023-03-05T09:44:08.049Z,95.44
2023-03-05T09:45:08.957Z,96.04
2023-03-05T09:46:08.116Z,95.50
2023-03-05T09:47:08.008Z,95.28
2023-03-05T09:48:08.012Z,95.28
2023-03-05T09:49:08.001Z,95.33
2023-03-05T09:50:08.887Z,95.06
2023-03-05T09:51:07.936Z,94.58
2023-03-05T09:52:07.950Z,94.26
2023-03-05T09:53:08.781Z,94.21
2023-03-05T09:54:07.956Z,93.84
2023-03-05T09:55:07.918Z,95.57
2023-03-05T09:56:08.939Z,95.57
2023-03-05T09:57:07.943Z,95.36
2023-03-05T09:58:07.853Z,95.25
2023-03-05T09:59:07.857Z,95.14
2023-03-05T10:00:07.855Z,95.36
2023-03-05T10:01:07.860Z,95.03
2023-03-05T10:02:08.804Z,95.03
2023-03-05T10:03:07.838Z,95.03
2023-03-05T10:04:07.836Z,95.14
2023-03-05T10:05:07.793Z,95.14
2023-03-05T10:06:07.851Z,94.92
2023-03-05T10:07:08.969Z,94.92
2023-03-05T10:08:07.743Z,94.50
2023-03-05T10:09:07.742Z,94.18
2023-03-05T10:10:07.722Z,93.96
2023-03-05T10:11:07.693Z,93.65
2023-03-05T10:12:08.625Z,93.86
2023-03-05T10:13:07.672Z,93.75
2023-03-05T10:14:07.664Z,93.44
2023-03-05T10:15:07.654Z,93.03
2023-03-05T10:16:07.835Z,93.34
2023-03-05T10:17:08.552Z,93.65
2023-03-05T10:18:07.647Z,93.96
2023-03-05T10:19:07.655Z,94.28
2023-03-05T10:20:07.583Z,94.92
2023-03-05T10:21:07.567Z,94.92
2023-03-05T10:22:08.523Z,94.15
2023-03-05T10:23:07.681Z,93.63
2023-03-05T10:24:07.522Z,94.15
2023-03-05T10:25:07.545Z,94.69
2023-03-05T10:26:07.540Z,94.79
2023-03-05T10:27:08.512Z,95.55
2023-03-05T10:28:07.485Z,95.77
2023-03-05T10:29:07.495Z,95.55
2023-03-05T10:30:07.513Z,96.04
2023-03-05T10:31:07.536Z,96.43
2023-03-05T10:32:08.551Z,96.54
2023-03-05T10:33:07.416Z,96.38
2023-03-05T10:34:07.409Z,96.54
2023-03-05T10:35:07.438Z,95.88
2023-03-05T10:36:07.393Z,96.71
2023-03-05T10:37:08.346Z,96.60
2023-03-05T10:38:07.358Z,96.15
2023-03-05T10:39:07.334Z,96.54
2023-03-05T10:40:07.332Z,95.93
2023-03-05T10:41:07.318Z,95.33
2023-03-05T10:42:07.363Z,94.79
2023-03-05T10:43:08.264Z,94.42
2023-03-05T10:44:07.297Z,94.21
2023-03-05T10:45:07.264Z,93.73
2023-03-05T10:46:07.315Z,95.36
2023-03-05T10:47:07.276Z,95.36
2023-03-05T10:48:07.228Z,95.46
2023-03-05T10:49:08.129Z,95.14
2023-03-05T10:50:07.214Z,95.14
2023-03-05T10:51:07.189Z,95.03
2023-03-05T10:52:07.196Z,94.92
2023-03-05T10:53:07.171Z,94.71
2023-03-05T10:54:07.243Z,94.60
2023-03-05T10:55:08.078Z,94.28
2023-03-05T10:56:07.126Z,94.39
2023-03-05T10:57:07.122Z,94.50
2023-03-05T10:58:07.093Z,94.18
2023-03-05T10:59:07.094Z,94.18
2023-03-05T11:00:08.078Z,93.55
2023-03-05T11:01:07.146Z,93.65
2023-03-05T11:02:07.073Z,93.65
2023-03-05T11:03:07.045Z,93.44
2023-03-05T11:04:07.130Z,93.96
2023-03-05T11:05:07.919Z,93.65
2023-03-05T11:06:07.041Z,94.39
2023-03-05T11:07:07.049Z,94.28
2023-03-05T11:08:07.000Z,94.18
2023-03-05T11:09:06.954Z,94.50
2023-03-05T11:10:06.961Z,94.18
2023-03-05T11:11:07.860Z,94.28
2023-03-05T11:12:06.903Z,94.28
2023-03-05T11:13:06.946Z,93.86
2023-03-05T11:14:06.881Z,93.75
2023-03-05T11:15:06.859Z,94.07
2023-03-05T11:16:07.862Z,93.65
2023-03-05T11:17:06.852Z,93.65
2023-03-05T11:18:06.829Z,93.65
2023-03-05T11:19:06.822Z,93.75
2023-03-05T11:20:06.782Z,93.75
2023-03-05T11:21:07.737Z,93.86
2023-03-05T11:22:06.804Z,93.96
2023-03-05T11:23:06.760Z,94.07
2023-03-05T11:24:06.794Z,94.07
2023-03-05T11:25:06.732Z,94.28
2023-03-05T11:26:06.753Z,94.28
2023-03-05T11:27:07.642Z,94.39
2023-03-05T11:28:06.726Z,93.96
2023-03-05T11:29:06.702Z,94.50
2023-03-05T11:30:06.734Z,94.39
2023-03-05T11:31:06.772Z,94.50
2023-03-05T11:32:06.660Z,94.50
2023-03-05T11:33:09.431Z,95.46
2023-03-05T11:34:06.657Z,95.14
2023-03-05T11:35:06.619Z,95.36
2023-03-05T11:36:06.610Z,94.26
2023-03-05T11:37:06.598Z,93.94
2023-03-05T11:38:06.571Z,93.94
2023-03-05T11:39:07.495Z,95.14
2023-03-05T11:40:06.573Z,94.60
2023-03-05T11:41:06.555Z,94.28
2023-03-05T11:42:06.561Z,94.18
2023-03-05T11:43:06.494Z,93.86
2023-03-05T11:44:06.483Z,93.55
2023-03-05T11:45:07.397Z,93.44
2023-03-05T11:46:06.603Z,93.55
2023-03-05T11:47:06.472Z,93.65
2023-03-05T11:48:06.453Z,93.65
2023-03-05T11:49:06.449Z,93.75
2023-03-05T11:50:06.435Z,93.86
2023-03-05T11:51:07.358Z,93.75
2023-03-05T11:52:06.403Z,93.96
2023-03-05T11:53:06.361Z,94.07
2023-03-05T11:54:06.417Z,94.50
2023-03-05T11:55:06.379Z,94.39
2023-03-05T11:56:07.280Z,94.92
2023-03-05T11:57:06.331Z,94.60
2023-03-05T11:58:06.318Z,94.92
2023-03-05T11:59:06.299Z,95.36
2023-03-05T12:00:06.287Z,95.68
2023-03-05T12:01:07.242Z,95.46
2023-03-05T12:02:06.284Z,93.63
2023-03-05T12:03:06.317Z,93.63
2023-03-05T12:04:06.284Z,93.94
2023-03-05T12:05:06.215Z,94.42
2023-03-05T12:06:07.140Z,94.26
2023-03-05T12:07:06.201Z,94.42
2023-03-05T12:08:06.192Z,94.69
2023-03-05T12:09:06.154Z,94.53
2023-03-05T12:10:06.194Z,94.21
2023-03-05T12:11:06.155Z,94.21
2023-03-05T12:12:07.054Z,95.36
2023-03-05T12:13:06.179Z,95.03
2023-03-05T12:14:06.120Z,94.92
2023-03-05T12:15:06.129Z,93.55
2023-03-05T12:16:06.197Z,92.21
2023-03-05T12:17:06.063Z,91.20
2023-03-05T12:18:06.981Z,90.61
2023-03-05T12:19:06.041Z,89.83
2023-03-05T12:20:06.083Z,89.93
2023-03-05T12:21:06.152Z,88.97
2023-03-05T12:22:06.015Z,89.16
2023-03-05T12:23:06.935Z,88.41
2023-03-05T12:24:05.973Z,88.22
2023-03-05T12:25:05.945Z,87.85
2023-03-05T12:26:05.962Z,86.76
2023-03-05T12:27:05.996Z,85.96
2023-03-05T12:28:06.844Z,85.17
2023-03-05T12:29:05.941Z,83.98
2023-03-05T12:30:05.900Z,83.14
2023-03-05T12:31:05.929Z,82.57
2023-03-05T12:32:06.020Z,81.76
2023-03-05T12:33:06.774Z,80.97
2023-03-05T12:34:05.832Z,80.20
2023-03-05T12:35:05.811Z,80.35
2023-03-05T12:36:05.889Z,79.21
2023-03-05T12:37:05.828Z,78.32
2023-03-05T12:38:24.288Z,77.60